Time;durP1;ratioP1;P1;durP2;ratioP2;P2;SDS_P1;SDS_P2;PMS_P1;PMS_P2;Temp;Humidity;BMP_temperature;BMP_pressure;BME280_temperature;BME280_humidity;BME280_pressure;Samples;Min_cycle;Max_cycle;Signal;HPM_P1;HPM_P2
2022/05/27 04:35:26;;;;;;;2.53;0.90;;;;;;;15.04;100.00;98359.28;15263259;19;20014;-56
2022/05/27 04:40:32;;;;;;;3.35;0.85;;;;;;;14.91;100.00;98364.56;15272267;19;20015;-54
2022/05/27 04:45:37;;;;;;;3.50;1.02;;;;;;;14.84;100.00;98367.19;15275788;19;20018;-55
2022/05/27 04:50:45;;;;;;;2.75;0.88;;;;;;;14.75;100.00;98376.47;15274138;19;20010;-58
2022/05/27 04:55:50;;;;;;;3.42;0.90;;;;;;;14.61;100.00;98383.56;15275030;19;20038;-56
2022/05/27 05:00:58;;;;;;;2.60;0.88;;;;;;;14.57;100.00;98382.25;15278741;19;20050;-54
2022/05/27 05:06:06;;;;;;;4.28;0.90;;;;;;;14.43;100.00;98390.19;15276112;19;20764;-55
2022/05/27 05:11:12;;;;;;;2.85;0.80;;;;;;;14.30;100.00;98406.25;15275001;19;20019;-56
2022/05/27 05:16:18;;;;;;;2.78;0.98;;;;;;;14.20;100.00;98416.53;15275124;19;20034;-54
2022/05/27 05:21:31;;;;;;;2.53;1.00;;;;;;;14.13;100.00;98421.84;15277968;19;20018;-58
2022/05/27 05:26:39;;;;;;;3.00;1.00;;;;;;;14.05;100.00;98424.66;15277039;19;20158;-57
2022/05/27 05:31:44;;;;;;;3.60;1.10;;;;;;;13.97;100.00;98439.97;15280860;19;20034;-51
2022/05/27 05:36:54;;;;;;;4.88;1.20;;;;;;;13.91;100.00;98458.78;15271975;19;20014;-52
2022/05/27 05:42:00;;;;;;;4.80;1.02;;;;;;;13.81;100.00;98459.91;15272711;19;20031;-51
2022/05/27 05:47:10;;;;;;;3.03;0.90;;;;;;;13.74;100.00;98464.31;15269537;19;20010;-55
2022/05/27 05:52:18;;;;;;;2.28;0.93;;;;;;;13.64;100.00;98474.56;15273214;19;20015;-52
2022/05/27 05:57:23;;;;;;;4.00;1.30;;;;;;;13.63;100.00;98481.00;15270629;19;20888;-52
2022/05/27 06:02:29;;;;;;;2.70;1.17;;;;;;;13.60;100.00;98484.91;15275329;19;20042;-53
2022/05/27 06:07:38;;;;;;;3.00;1.13;;;;;;;13.60;100.00;98486.75;15271529;19;20042;-52
2022/05/27 06:12:44;;;;;;;3.63;1.30;;;;;;;13.54;100.00;98489.19;15274747;19;20014;-53
2022/05/27 06:17:59;;;;;;;3.25;1.50;;;;;;;13.52;100.00;98499.34;15267983;19;20115;-53
2022/05/27 06:23:10;;;;;;;3.65;1.45;;;;;;;13.55;100.00;98504.41;15273563;19;20030;-54
2022/05/27 06:38:53;;;;;;;4.68;1.65;;;;;;;13.65;100.00;98523.09;15270838;19;20467;-53
2022/05/27 06:43:58;;;;;;;4.47;1.48;;;;;;;13.69;100.00;98526.31;15271664;19;20034;-55
2022/05/27 06:49:04;;;;;;;4.50;1.77;;;;;;;13.69;100.00;98515.50;15266535;19;20010;-58
2022/05/27 06:54:13;;;;;;;4.20;1.60;;;;;;;13.73;100.00;98524.91;15264550;19;20020;-55
2022/05/27 06:59:19;;;;;;;4.85;1.70;;;;;;;13.71;100.00;98526.97;15269103;19;20673;-58
2022/05/27 07:04:25;;;;;;;6.43;1.73;;;;;;;13.68;100.00;98519.22;15268224;19;20010;-57
2022/05/27 07:09:35;;;;;;;4.28;1.63;;;;;;;13.69;100.00;98504.66;15270413;19;20126;-56
2022/05/27 07:14:41;;;;;;;3.55;1.50;;;;;;;13.71;100.00;98508.00;15269401;19;20043;-57
2022/05/27 07:19:46;;;;;;;4.65;1.33;;;;;;;13.64;100.00;98520.59;15268492;19;20018;-57
2022/05/27 07:24:54;;;;;;;2.50;1.23;;;;;;;13.56;100.00;98511.50;15268310;19;20014;-55
2022/05/27 07:30:02;;;;;;;3.03;1.10;;;;;;;13.47;100.00;98531.50;15266795;19;20424;-59
2022/05/27 07:35:12;;;;;;;1.58;0.70;;;;;;;13.18;100.00;98545.63;15270341;19;20042;-58
2022/05/27 07:40:20;;;;;;;2.33;0.80;;;;;;;12.17;100.00;98546.00;15282610;19;20349;-60
2022/05/27 07:45:27;;;;;;;1.98;0.90;;;;;;;11.74;100.00;98553.34;15282684;19;20020;-59
2022/05/27 07:50:32;;;;;;;2.17;1.00;;;;;;;11.48;100.00;98562.38;15277551;19;21377;-58
2022/05/27 07:55:40;;;;;;;4.00;1.10;;;;;;;11.32;100.00;98572.09;15278717;19;20495;-58
2022/05/27 08:00:46;;;;;;;1.83;1.13;;;;;;;11.23;100.00;98578.47;15284746;19;20030;-58
2022/05/27 08:05:51;;;;;;;3.53;1.40;;;;;;;11.25;100.00;98585.41;15278847;19;20017;-58
2022/05/27 08:11:00;;;;;;;3.00;1.52;;;;;;;11.24;100.00;98586.41;15278078;19;20054;-57
2022/05/27 08:16:06;;;;;;;2.95;1.30;;;;;;;11.20;100.00;98603.91;15276045;19;20404;-56
2022/05/27 08:21:12;;;;;;;3.15;1.48;;;;;;;11.20;100.00;98595.81;15282800;19;20018;-57
2022/05/27 08:26:20;;;;;;;2.50;1.30;;;;;;;11.24;100.00;98583.69;15271726;19;20028;-56
2022/05/27 08:31:26;;;;;;;2.67;1.20;;;;;;;11.32;100.00;98593.69;15269871;19;20060;-59
2022/05/27 08:42:22;;;;;;;2.97;1.10;;;;;;;11.60;100.00;98577.25;15279537;19;20014;-54
2022/05/27 08:47:34;;;;;;;2.13;0.73;;;;;;;11.65;100.00;98579.44;15272697;19;20029;-58
2022/05/27 08:52:41;;;;;;;;;;;;;;;11.72;100.00;98558.91;15276023;19;20017;-57
2022/05/27 09:03:10;;;;;;;3.55;0.90;;;;;;;11.85;100.00;98561.13;15285340;19;20509;-79
2022/05/27 09:08:21;;;;;;;2.97;1.00;;;;;;;11.99;100.00;98563.19;15281379;19;20129;-78
2022/05/27 09:13:39;;;;;;;1.52;0.85;;;;;;;12.09;100.00;98578.38;15286141;19;21319;-79
2022/05/27 09:18:58;;;;;;;1.00;0.70;;;;;;;12.07;100.00;98558.81;15280779;19;20021;-79
2022/05/27 09:24:25;;;;;;;1.83;0.90;;;;;;;12.33;100.00;98555.97;15285246;19;20014;-80
2022/05/27 09:30:02;;;;;;;2.75;0.93;;;;;;;12.64;100.00;98566.88;15283078;19;20022;-79
2022/05/27 09:35:14;;;;;;;1.92;0.90;;;;;;;12.81;100.00;98561.47;15285257;19;20007;-80
2022/05/27 09:40:46;;;;;;;2.45;0.63;;;;;;;12.73;100.00;98548.81;15302207;19;20714;-78
2022/05/27 09:45:55;;;;;;;2.25;0.80;;;;;;;12.75;100.00;98552.19;15300669;19;20472;-80
2022/05/27 09:51:05;;;;;;;1.98;0.88;;;;;;;12.75;100.00;98543.25;15292462;19;20038;-81
2022/05/27 09:56:11;;;;;;;1.65;0.77;;;;;;;12.87;100.00;98560.78;15289852;19;20014;-80
2022/05/27 10:01:28;;;;;;;2.38;0.70;;;;;;;12.92;100.00;98547.59;15292076;19;20063;-79
2022/05/27 10:06:38;;;;;;;1.83;0.70;;;;;;;13.01;100.00;98542.13;15305180;19;20346;-80
2022/05/27 10:11:52;;;;;;;2.35;0.70;;;;;;;13.09;100.00;98534.03;15333775;19;20041;-79
2022/05/27 10:17:08;;;;;;;1.70;0.80;;;;;;;13.16;100.00;98531.47;15274601;19;20021;-78
2022/05/27 10:22:29;;;;;;;2.35;0.80;;;;;;;12.96;100.00;98515.63;15277313;19;20039;-78
2022/05/27 10:27:39;;;;;;;2.92;0.80;;;;;;;12.90;100.00;98519.88;15276139;19;20015;-80
2022/05/27 10:32:46;;;;;;;2.83;0.85;;;;;;;12.73;100.00;98531.75;15280602;19;20023;-78
2022/05/27 10:38:10;;;;;;;1.27;0.80;;;;;;;12.76;100.00;98531.38;15281132;19;20010;-78
2022/05/27 10:43:32;;;;;;;1.70;0.80;;;;;;;12.89;100.00;98553.31;15285487;19;20021;-79
2022/05/27 10:49:09;;;;;;;3.60;1.02;;;;;;;13.03;100.00;98542.81;15279700;19;20027;-81
2022/05/27 10:54:33;;;;;;;1.95;0.90;;;;;;;13.13;100.00;98538.03;15276996;19;20556;-80
2022/05/27 11:05:27;;;;;;;2.03;1.00;;;;;;;13.58;100.00;98505.06;15271326;19;20011;-81
2022/05/27 11:10:46;;;;;;;1.63;0.80;;;;;;;13.58;100.00;98513.19;15287045;19;20027;-80
2022/05/27 11:16:02;;;;;;;2.28;1.00;;;;;;;13.65;100.00;98520.38;15288444;19;20010;-80
2022/05/27 11:21:38;;;;;;;1.58;0.90;;;;;;;13.87;100.00;98502.47;15292169;19;20023;-80
2022/05/27 11:27:00;;;;;;;2.97;0.90;;;;;;;14.26;100.00;98499.81;15289078;19;20034;-80
2022/05/27 11:32:19;;;;;;;2.53;1.00;;;;;;;14.34;100.00;98469.91;15285159;19;20025;-79
2022/05/27 11:37:51;;;;;;;1.23;0.80;;;;;;;14.23;100.00;98478.50;15286498;19;20035;-81
2022/05/27 11:43:15;;;;;;;1.63;0.80;;;;;;;14.33;100.00;98476.34;15285783;19;20010;-80
2022/05/27 11:48:31;;;;;;;1.50;0.90;;;;;;;14.75;100.00;98474.94;15284374;19;20621;-80
2022/05/27 11:53:55;;;;;;;2.10;0.82;;;;;;;15.17;100.00;98450.00;15287415;19;20782;-80
2022/05/27 11:59:04;;;;;;;3.33;0.90;;;;;;;15.22;100.00;98447.59;15280899;19;20732;-80
2022/05/27 12:04:15;;;;;;;1.70;0.70;;;;;;;15.34;100.00;98421.63;15282190;19;20043;-81
2022/05/27 12:09:31;;;;;;;2.35;0.70;;;;;;;15.30;100.00;98411.31;15280575;19;20471;-81
2022/05/27 12:14:42;;;;;;;1.38;0.70;;;;;;;15.57;100.00;98407.03;15282329;19;20058;-80
2022/05/27 12:19:54;;;;;;;1.88;0.80;;;;;;;15.83;100.00;98391.97;15282932;19;20021;-79
2022/05/27 12:25:04;;;;;;;1.67;0.77;;;;;;;15.88;100.00;98386.03;15280576;19;20039;-79
2022/05/27 12:30:15;;;;;;;2.20;0.73;;;;;;;15.57;100.00;98397.00;15281599;19;20479;-80
2022/05/27 12:35:27;;;;;;;2.15;0.77;;;;;;;15.65;100.00;98396.03;15281077;19;20031;-80
2022/05/27 12:40:42;;;;;;;1.65;0.75;;;;;;;16.10;100.00;98386.81;15282718;19;20034;-82
2022/05/27 12:45:55;;;;;;;1.27;0.70;;;;;;;16.44;100.00;98385.13;15283132;19;20363;-80
2022/05/27 12:51:03;;;;;;;2.58;0.80;;;;;;;16.35;100.00;98376.28;15284904;19;20027;-81
2022/05/27 13:02:36;;;;;;;1.88;0.70;;;;;;;16.70;100.00;98381.72;15284244;19;20423;-78
2022/05/27 13:07:53;;;;;;;2.00;0.70;;;;;;;16.60;100.00;98365.78;15282318;19;20007;-81
2022/05/27 13:13:08;;;;;;;2.20;0.80;;;;;;;16.73;100.00;98358.72;15280175;19;20010;-80
2022/05/27 13:18:27;;;;;;;2.42;0.82;;;;;;;16.87;100.00;98349.59;15283901;19;20035;-80
2022/05/27 13:23:35;;;;;;;2.28;0.70;;;;;;;16.69;100.00;98343.84;15287551;19;20017;-81
2022/05/27 13:28:48;;;;;;;2.78;0.80;;;;;;;16.60;100.00;98330.41;15289207;19;20034;-80
2022/05/27 13:34:02;;;;;;;2.45;0.75;;;;;;;16.38;100.00;98337.00;15328067;19;20018;-79
2022/05/27 13:39:13;;;;;;;2.60;0.80;;;;;;;16.41;100.00;98340.16;15306160;19;20019;-80
2022/05/27 13:44:21;;;;;;;2.67;0.80;;;;;;;16.47;100.00;98327.63;15275395;19;20050;-82
2022/05/27 13:49:32;;;;;;;2.38;0.90;;;;;;;16.28;100.00;98313.75;15275728;19;20027;-82
2022/05/27 13:54:40;;;;;;;1.92;0.75;;;;;;;16.42;100.00;98319.22;15277125;19;20038;-81
2022/05/27 13:59:52;;;;;;;2.95;0.85;;;;;;;16.28;100.00;98308.31;15271611;19;20010;-81
2022/05/27 14:05:04;;;;;;;1.45;0.73;;;;;;;16.16;100.00;98331.66;15276774;19;20316;-80
2022/05/27 14:10:21;;;;;;;4.93;1.02;;;;;;;15.60;100.00;98346.88;15274873;19;20010;-82
2022/05/27 14:15:30;;;;;;;2.08;0.70;;;;;;;15.39;100.00;98342.31;15277665;19;20022;-82
2022/05/27 14:26:01;;;;;;;1.63;0.50;;;;;;;15.21;100.00;98346.31;15279994;19;20628;-84
2022/05/27 14:31:17;;;;;;;1.83;0.77;;;;;;;14.85;100.00;98346.34;15274689;19;20021;-82
2022/05/27 14:36:28;;;;;;;1.92;0.85;;;;;;;14.53;100.00;98379.06;15277064;19;20034;-84
2022/05/27 14:41:38;;;;;;;2.13;0.90;;;;;;;14.46;100.00;98379.00;15285126;19;20015;-84
2022/05/27 14:47:08;;;;;;;1.38;0.70;;;;;;;14.58;100.00;98360.38;15294074;19;20010;-85
2022/05/27 14:52:26;;;;;;;1.60;0.70;;;;;;;15.06;100.00;98340.94;15335872;19;20046;-80
2022/05/27 14:57:34;;;;;;;2.75;0.70;;;;;;;16.10;100.00;98329.72;15319672;19;20010;-81
2022/05/27 15:02:53;;;;;;;1.95;0.77;;;;;;;16.75;100.00;98324.00;15303112;19;20010;-84
2022/05/27 15:08:04;;;;;;;3.55;0.80;;;;;;;17.12;100.00;98335.41;15289182;19;20038;-85
2022/05/27 15:13:27;;;;;;;2.35;1.02;;;;;;;17.41;100.00;98331.50;15293475;19;20042;-84
2022/05/27 15:18:35;;;;;;;3.78;0.90;;;;;;;17.75;100.00;98315.16;15290383;19;20038;-85
2022/05/27 15:23:51;;;;;;;3.13;1.00;;;;;;;17.78;100.00;98320.19;15307462;19;20360;-86
2022/05/27 15:34:27;;;;;;;3.55;1.20;;;;;;;18.24;93.83;98321.19;15300458;19;20049;-85
2022/05/27 15:39:47;;;;;;;5.65;1.00;;;;;;;17.98;61.08;98316.63;15301770;19;20018;-85
2022/05/27 15:45:00;;;;;;;3.25;1.02;;;;;;;18.28;74.06;98314.28;15287208;19;20018;-83
2022/05/27 15:50:20;;;;;;;4.25;1.20;;;;;;;18.17;64.84;98337.56;15290078;19;20006;-83
2022/05/27 15:55:31;;;;;;;3.83;1.00;;;;;;;18.10;59.97;98325.84;15287595;19;20006;-85
2022/05/27 16:00:39;;;;;;;3.40;1.00;;;;;;;18.31;58.88;98316.56;15299028;19;20010;-86
2022/05/27 16:05:45;;;;;;;3.38;1.00;;;;;;;18.20;58.04;98321.84;15290028;19;20027;-82
2022/05/27 16:10:52;;;;;;;3.92;0.82;;;;;;;18.35;58.30;98310.66;15270416;19;20014;-84
2022/05/27 16:21:16;;;;;;;3.17;1.05;;;;;;;17.90;55.78;98341.38;15287414;19;20453;-86
2022/05/27 16:26:27;;;;;;;2.58;0.98;;;;;;;18.07;57.14;98331.72;15287675;19;20002;-85
2022/05/27 16:31:32;;;;;;;2.45;1.02;;;;;;;18.22;60.06;98319.75;15290098;19;20058;-82
2022/05/27 16:36:37;;;;;;;4.13;1.10;;;;;;;17.93;56.47;98346.41;15288846;19;19998;-83
2022/05/27 16:41:47;;;;;;;4.40;1.20;;;;;;;17.71;54.70;98339.28;15295967;19;20018;-83
2022/05/27 16:46:53;;;;;;;6.18;1.10;;;;;;;17.63;53.89;98335.91;15287925;19;20047;-83
2022/05/27 16:51:58;;;;;;;3.65;1.08;;;;;;;17.62;56.75;98335.09;15289998;19;20003;-83
2022/05/27 16:57:07;;;;;;;4.88;1.17;;;;;;;17.55;55.96;98339.69;15288937;19;20011;-84
2022/05/27 17:02:24;;;;;;;4.65;1.15;;;;;;;17.56;54.46;98353.09;15320828;19;20007;-84
2022/05/27 17:07:32;;;;;;;2.83;0.98;;;;;;;17.46;55.03;98349.97;15317553;19;20022;-82
2022/05/27 17:12:42;;;;;;;3.60;1.02;;;;;;;17.36;55.08;98350.34;15282708;19;20097;-82
2022/05/27 17:17:51;;;;;;;3.80;1.20;;;;;;;17.24;55.04;98361.00;15289370;19;20123;-82
2022/05/27 17:23:14;;;;;;;2.38;1.00;;;;;;;17.14;54.98;98344.22;15296110;19;20018;-85
2022/05/27 17:28:33;;;;;;;3.83;0.98;;;;;;;17.02;55.45;98373.09;15287572;19;20511;-86
2022/05/27 17:33:45;;;;;;;3.92;1.15;;;;;;;17.08;58.45;98351.34;15283581;19;20475;-81
2022/05/27 17:38:50;;;;;;;5.60;1.10;;;;;;;16.93;57.76;98353.38;15287666;19;20011;-83
2022/05/27 17:44:01;;;;;;;3.85;1.20;;;;;;;16.89;58.79;98360.25;15280041;19;20471;-81
2022/05/27 17:54:28;;;;;;;3.03;1.10;;;;;;;16.56;60.73;98364.50;15281192;19;20011;-84
2022/05/27 17:59:37;;;;;;;3.40;1.25;;;;;;;16.36;60.00;98360.84;15283047;19;20499;-81
2022/05/27 18:04:42;;;;;;;5.32;1.20;;;;;;;16.22;63.54;98363.47;15282240;19;20018;-80
2022/05/27 18:09:48;;;;;;;3.38;1.08;;;;;;;16.12;63.92;98373.84;15284883;19;20348;-82
2022/05/27 18:14:59;;;;;;;3.58;1.33;;;;;;;16.00;66.70;98377.13;15280651;19;20043;-82
2022/05/27 18:20:05;;;;;;;6.30;1.40;;;;;;;15.84;67.12;98377.38;15282465;19;20515;-83
2022/05/27 18:25:11;;;;;;;4.30;1.40;;;;;;;15.65;72.71;98381.59;15281009;19;20038;-83
2022/05/27 18:30:21;;;;;;;4.60;1.30;;;;;;;15.38;71.80;98379.47;15281733;19;20531;-83
2022/05/27 18:35:30;;;;;;;4.68;1.40;;;;;;;15.07;79.64;98383.31;15282340;19;20014;-83
2022/05/27 18:46:02;;;;;;;6.80;1.60;;;;;;;14.58;88.81;98392.06;15285724;19;20015;-82
2022/05/27 18:51:31;;;;;;;5.28;1.50;;;;;;;14.28;86.96;98387.50;15283332;19;20035;-83
2022/05/27 18:56:49;;;;;;;4.07;1.38;;;;;;;14.15;92.03;98396.28;15275129;19;20491;-83
2022/05/27 19:02:49;;;;;;;5.03;1.40;;;;;;;13.91;98.29;98404.63;15286836;19;20007;-84
2022/05/27 19:08:00;;;;;;;4.43;1.20;;;;;;;13.58;100.00;98404.91;15282460;19;20014;-83
2022/05/27 19:13:07;;;;;;;4.63;1.40;;;;;;;13.43;100.00;98405.69;15286196;19;20853;-84
2022/05/27 19:18:12;;;;;;;6.07;1.27;;;;;;;13.34;100.00;98414.88;15287127;19;20011;-83
2022/05/27 19:23:20;;;;;;;4.93;1.45;;;;;;;13.25;100.00;98414.06;15292200;19;20015;-83
2022/05/27 19:28:25;;;;;;;4.47;1.40;;;;;;;13.10;100.00;98419.41;15278314;19;20028;-84
2022/05/27 19:33:31;;;;;;;4.50;1.48;;;;;;;12.93;100.00;98426.75;14792740;19;10000419;-84
2022/05/27 19:55:56;;;;;;;4.70;1.50;;;;;;;12.54;100.00;98441.91;15321069;19;20460;-61
2022/05/27 20:01:01;;;;;;;5.82;1.60;;;;;;;12.45;100.00;98437.56;15283817;19;20014;-63
2022/05/27 20:06:07;;;;;;;5.10;1.75;;;;;;;12.26;100.00;98450.44;15284446;19;20014;-62
2022/05/27 20:11:14;;;;;;;5.55;1.65;;;;;;;12.35;100.00;98448.56;15281347;19;20010;-62
2022/05/27 20:16:20;;;;;;;5.10;1.40;;;;;;;12.22;100.00;98443.69;15278647;19;20085;-59
2022/05/27 20:21:35;;;;;;;5.45;1.50;;;;;;;12.19;100.00;98449.44;15280409;19;20503;-60
2022/05/27 20:26:45;;;;;;;9.23;1.60;;;;;;;12.19;100.00;98457.53;15278286;19;20025;-59
2022/05/27 20:31:51;;;;;;;4.82;1.60;;;;;;;12.17;100.00;98454.19;15282376;19;20018;-60
2022/05/27 20:37:03;;;;;;;4.70;1.52;;;;;;;12.06;100.00;98455.34;15280484;19;20014;-61
2022/05/27 20:42:13;;;;;;;7.47;1.75;;;;;;;11.89;100.00;98468.00;15280429;19;20074;-61
2022/05/27 20:47:19;;;;;;;6.95;1.70;;;;;;;11.92;100.00;98464.97;15279672;19;20033;-61
2022/05/27 20:52:25;;;;;;;5.88;1.80;;;;;;;11.90;100.00;98471.53;15280317;19;20018;-61
2022/05/27 20:57:33;;;;;;;5.45;1.45;;;;;;;11.76;100.00;98475.75;15273921;19;20027;-61
2022/05/27 21:02:38;;;;;;;5.40;1.95;;;;;;;11.69;100.00;98471.03;15279515;19;20011;-61
2022/05/27 21:07:46;;;;;;;6.65;1.55;;;;;;;11.56;100.00;98478.75;15278744;19;20022;-60
2022/05/27 21:12:55;;;;;;;4.78;1.40;;;;;;;11.52;100.00;98469.31;15280165;19;20018;-58
2022/05/27 21:18:00;;;;;;;7.63;1.52;;;;;;;11.47;100.00;98472.50;15274926;19;20024;-60
2022/05/27 21:23:06;;;;;;;7.68;1.65;;;;;;;11.40;100.00;98477.72;15278052;19;20019;-61
2022/05/27 21:28:14;;;;;;;6.35;1.70;;;;;;;11.33;100.00;98471.31;15267835;19;20061;-62
2022/05/27 21:33:20;;;;;;;7.03;1.70;;;;;;;11.33;100.00;98476.69;15272654;19;20348;-62
2022/05/27 21:38:25;;;;;;;9.10;1.60;;;;;;;11.28;100.00;98484.44;15276304;19;20098;-60
2022/05/27 21:43:34;;;;;;;5.00;1.55;;;;;;;11.24;100.00;98473.13;15279913;19;20015;-53
2022/05/27 21:48:42;;;;;;;5.45;1.50;;;;;;;11.18;100.00;98481.84;15273536;19;20089;-57
2022/05/27 21:53:48;;;;;;;6.20;1.67;;;;;;;11.08;100.00;98479.31;15273968;19;20014;-56
2022/05/27 21:58:56;;;;;;;4.50;1.50;;;;;;;10.89;100.00;98484.94;15272527;19;20017;-64
2022/05/27 22:04:01;;;;;;;5.53;1.50;;;;;;;10.88;100.00;98478.72;15275919;19;20010;-59
2022/05/27 22:09:06;;;;;;;5.07;1.40;;;;;;;10.67;100.00;98487.22;15274592;19;20086;-57
2022/05/27 22:14:14;;;;;;;5.72;1.40;;;;;;;10.68;100.00;98482.69;15275213;19;20042;-53
2022/05/27 22:19:19;;;;;;;5.65;1.35;;;;;;;10.59;100.00;98484.47;15273192;19;20098;-60
2022/05/27 22:24:25;;;;;;;4.13;1.40;;;;;;;10.63;100.00;98485.88;15277357;19;20368;-62
2022/05/27 22:29:32;;;;;;;6.43;1.60;;;;;;;10.61;100.00;98475.22;15269580;19;20018;-56
2022/05/27 22:34:37;;;;;;;6.82;1.75;;;;;;;10.55;100.00;98486.66;15272457;19;20015;-57
2022/05/27 22:39:43;;;;;;;6.10;1.40;;;;;;;10.50;100.00;98477.38;15273900;19;20021;-56
2022/05/27 22:44:51;;;;;;;4.55;1.55;;;;;;;10.37;100.00;98470.53;15276733;19;20011;-60
2022/05/27 22:49:56;;;;;;;5.95;1.50;;;;;;;10.34;100.00;98473.53;15270462;19;20022;-60
2022/05/27 22:55:02;;;;;;;6.47;1.58;;;;;;;10.27;100.00;98470.63;15267059;19;20475;-56
2022/05/27 23:00:12;;;;;;;5.43;1.55;;;;;;;10.19;100.00;98470.56;15270036;19;20030;-61
2022/05/27 23:05:17;;;;;;;5.70;1.33;;;;;;;10.05;100.00;98468.44;15276568;19;20435;-60
2022/05/27 23:10:22;;;;;;;3.60;1.25;;;;;;;10.04;100.00;98470.31;15274712;19;20025;-61
2022/05/27 23:20:48;;;;;;;5.07;1.38;;;;;;;9.99;100.00;98456.47;15288485;19;20014;-60
2022/05/27 23:25:56;;;;;;;4.47;1.30;;;;;;;9.99;100.00;98462.72;15286606;19;20011;-58
2022/05/27 23:31:03;;;;;;;5.15;1.38;;;;;;;9.85;100.00;98460.56;15287168;19;20049;-58
2022/05/27 23:36:10;;;;;;;6.35;1.40;;;;;;;9.87;100.00;98453.19;15278091;19;20014;-61
2022/05/27 23:41:16;;;;;;;4.70;1.30;;;;;;;9.83;100.00;98449.09;15287752;19;20344;-61
2022/05/27 23:46:24;;;;;;;4.82;1.40;;;;;;;9.70;100.00;98449.53;15287153;19;20007;-58
2022/05/27 23:51:29;;;;;;;4.00;1.40;;;;;;;9.60;100.00;98456.81;15285624;19;20077;-59
2022/05/27 23:56:40;;;;;;;5.60;1.40;;;;;;;9.59;100.00;98444.34;15025530;19;5001250;-57
